Time;durP1;ratioP1;P1;durP2;ratioP2;P2;SDS_P1;SDS_P2;PMS_P1;PMS_P2;Temp;Humidity;BMP_temperature;BMP_pressure;BME280_temperature;BME280_humidity;BME280_pressure;Samples;Min_cycle;Max_cycle;Signal;HPM_P1;HPM_P2
2020/12/19 00:01:04;;;;;;;4.03;3.63;;;22.80;53.40;;;;;;5092632;28;20412;-70
2020/12/19 00:03:30;;;;;;;4.83;4.33;;;22.80;53.40;;;;;;5092505;28;20428;-70
2020/12/19 00:05:56;;;;;;;5.20;4.30;;;22.80;53.40;;;;;;5074512;28;20259;-70
2020/12/19 00:08:21;;;;;;;4.93;3.93;;;22.80;53.40;;;;;;5096545;28;20170;-70
2020/12/19 00:10:47;;;;;;;4.60;4.03;;;22.80;53.40;;;;;;5096245;28;20170;-70
2020/12/19 00:13:13;;;;;;;4.43;4.03;;;22.80;53.40;;;;;;5096315;28;20198;-70
2020/12/19 00:15:38;;;;;;;6.30;4.20;;;22.80;53.50;;;;;;5096111;28;20174;-70
2020/12/19 00:18:04;;;;;;;4.37;3.97;;;22.80;53.50;;;;;;5096067;28;20166;-70
2020/12/19 00:20:30;;;;;;;5.40;3.80;;;22.80;53.50;;;;;;5096018;28;20419;-70
2020/12/19 00:22:55;;;;;;;4.70;4.20;;;22.80;53.50;;;;;;5095906;28;20561;-69
2020/12/19 00:25:21;;;;;;;3.90;3.50;;;22.80;53.50;;;;;;5095862;28;20659;-70
2020/12/19 00:27:46;;;;;;;4.13;3.73;;;22.70;53.40;;;;;;5095910;28;20202;-70
2020/12/19 00:30:12;;;;;;;5.33;4.30;;;22.70;53.40;;;;;;5096124;28;20177;-70
2020/12/19 00:32:39;;;;;;;4.70;4.20;;;22.70;53.50;;;;;;5095658;28;20201;-70
2020/12/19 00:35:06;;;;;;;4.43;4.03;;;22.70;53.50;;;;;;5095695;28;20166;-70
2020/12/19 00:37:32;;;;;;;5.07;3.97;;;22.70;53.50;;;;;;5095992;28;20431;-70
2020/12/19 00:39:58;;;;;;;5.10;4.60;;;22.70;53.50;;;;;;5095942;28;20438;-70
2020/12/19 00:42:23;;;;;;;5.13;4.13;;;22.70;53.50;;;;;;5095746;28;20318;-70
2020/12/19 00:44:49;;;;;;;4.37;3.97;;;22.70;53.50;;;;;;5095658;28;20197;-70
2020/12/19 00:47:15;;;;;;;5.73;4.03;;;22.70;53.60;;;;;;5095779;28;20177;-70
2020/12/19 00:49:40;;;;;;;4.37;3.97;;;22.70;53.50;;;;;;5095512;28;20161;-70
2020/12/19 00:52:06;;;;;;;5.90;4.20;;;22.70;53.60;;;;;;5077189;28;20681;-70
2020/12/19 00:54:31;;;;;;;4.23;3.80;;;22.70;53.60;;;;;;5095420;28;20299;-70
2020/12/19 00:56:57;;;;;;;4.50;4.10;;;22.70;54.10;;;;;;5095303;28;20194;-70
2020/12/19 00:59:23;;;;;;;4.60;3.90;;;22.70;53.60;;;;;;5095313;28;20666;-70
2020/12/19 01:01:48;;;;;;;4.37;3.50;;;22.60;53.50;;;;;;5095307;28;20158;-70
2020/12/19 01:04:15;;;;;;;4.40;3.60;;;22.60;53.60;;;;;;5095128;28;20636;-71
2020/12/19 01:06:41;;;;;;;4.40;4.00;;;22.60;53.60;;;;;;5095164;28;20541;-70
2020/12/19 01:09:08;;;;;;;3.90;3.60;;;22.60;53.60;;;;;;5095428;28;20813;-70
2020/12/19 01:11:36;;;;;;;4.30;3.63;;;22.60;53.60;;;;;;5094921;28;20933;-71
2020/12/19 01:14:03;;;;;;;4.70;4.30;;;22.60;53.60;;;;;;5076857;28;20430;-70
2020/12/19 01:16:29;;;;;;;4.20;3.80;;;22.60;53.60;;;;;;5095003;28;20431;-71
2020/12/19 01:18:57;;;;;;;3.97;3.60;;;22.60;54.20;;;;;;5094020;28;20438;-69
2020/12/19 01:21:25;;;;;;;4.43;3.90;;;22.60;53.60;;;;;;5095271;28;20411;-69
2020/12/19 01:23:52;;;;;;;4.53;3.70;;;22.60;53.70;;;;;;5094920;28;20459;-70
2020/12/19 01:26:18;;;;;;;4.27;3.87;;;22.60;53.60;;;;;;5094743;28;20494;-70
2020/12/19 01:28:44;;;;;;;4.50;4.10;;;22.50;53.60;;;;;;5094928;28;20404;-70
2020/12/19 01:31:12;;;;;;;4.03;3.63;;;22.50;53.60;;;;;;5094768;28;20468;-70
2020/12/19 01:33:37;;;;;;;4.87;3.70;;;22.50;53.60;;;;;;5095386;28;20462;-70
2020/12/19 01:36:08;;;;;;;4.30;3.90;;;22.60;53.70;;;;;;5094536;28;20408;-70
2020/12/19 01:38:33;;;;;;;4.00;3.47;;;22.50;53.70;;;;;;5094595;28;20680;-69
2020/12/19 01:40:59;;;;;;;4.97;3.90;;;22.50;53.70;;;;;;5094559;28;20498;-69
2020/12/19 01:43:24;;;;;;;5.10;3.53;;;22.50;53.70;;;;;;5094698;28;20194;-70
2020/12/19 01:45:51;;;;;;;3.70;3.23;;;22.50;53.70;;;;;;5094336;28;20190;-70
2020/12/19 01:48:24;;;;;;;3.90;3.53;;;22.50;53.70;;;;;;5094431;28;20173;-70
2020/12/19 01:50:52;;;;;;;4.00;3.60;;;22.50;53.70;;;;;;5076339;28;20926;-70
2020/12/19 01:53:22;;;;;;;4.40;4.00;;;22.50;53.70;;;;;;5094211;28;20424;-70
2020/12/19 01:55:51;;;;;;;3.70;3.40;;;22.50;54.30;;;;;;5094501;28;20483;-70
2020/12/19 01:58:17;;;;;;;3.67;3.10;;;22.50;54.40;;;;;;5094402;28;20495;-70
2020/12/19 02:00:44;;;;;;;4.00;3.60;;;22.50;53.80;;;;;;5094151;28;20523;-70
2020/12/19 02:03:09;;;;;;;4.53;4.10;;;22.40;54.30;;;;;;5093987;28;20692;-70
2020/12/19 02:05:38;;;;;;;5.17;3.80;;;22.50;53.80;;;;;;5094009;28;20481;-70
2020/12/19 02:08:05;;;;;;;4.23;3.83;;;22.40;53.70;;;;;;5075813;28;20169;-70
2020/12/19 02:10:32;;;;;;;6.10;3.30;;;22.40;53.70;;;;;;5093975;28;20407;-70
2020/12/19 02:13:03;;;;;;;4.10;3.47;;;22.40;54.30;;;;;;5094099;28;20420;-70
2020/12/19 02:15:45;;;;;;;3.37;3.07;;;22.40;53.70;;;;;;5093904;28;20396;-70
2020/12/19 02:18:12;;;;;;;4.10;3.70;;;22.40;53.70;;;;;;5093840;28;20461;-70
2020/12/19 02:20:38;;;;;;;4.03;3.33;;;22.40;53.70;;;;;;5093758;28;20404;-70
2020/12/19 02:23:06;;;;;;;4.07;3.00;;;22.40;53.70;;;;;;5093656;28;20442;-70
2020/12/19 02:25:37;;;;;;;4.40;3.70;;;22.50;53.80;;;;;;5093532;28;21069;-70
2020/12/19 02:28:08;;;;;;;4.10;3.70;;;22.50;53.80;;;;;;5093640;28;20482;-70
2020/12/19 02:30:35;;;;;;;3.27;2.97;;;22.50;53.80;;;;;;5093392;28;20412;-70
2020/12/19 02:33:00;;;;;;;3.67;3.37;;;22.40;53.70;;;;;;5093329;28;20508;-69
2020/12/19 02:35:28;;;;;;;4.37;3.97;;;22.40;53.70;;;;;;5093474;28;20408;-70
2020/12/19 02:37:54;;;;;;;4.00;3.70;;;22.40;53.70;;;;;;5093455;28;20247;-69
2020/12/19 02:40:20;;;;;;;3.57;3.27;;;22.40;53.70;;;;;;5093668;28;20404;-69
2020/12/19 02:42:46;;;;;;;3.67;3.33;;;22.40;53.70;;;;;;5093312;28;20281;-70
2020/12/19 02:45:12;;;;;;;3.60;3.27;;;22.40;53.70;;;;;;5093320;28;20546;-70
2020/12/19 02:47:38;;;;;;;3.73;3.40;;;22.50;53.80;;;;;;5093641;28;20169;-70
2020/12/19 02:50:05;;;;;;;3.23;2.93;;;22.40;53.70;;;;;;5093304;28;20201;-70
2020/12/19 02:52:32;;;;;;;3.30;2.97;;;22.50;53.80;;;;;;5093209;28;20439;-70
2020/12/19 02:54:57;;;;;;;3.90;2.90;;;22.40;53.70;;;;;;5093243;28;20412;-70
2020/12/19 02:57:23;;;;;;;4.00;3.60;;;22.40;53.70;;;;;;5093351;28;20408;-70
2020/12/19 02:59:49;;;;;;;3.50;3.20;;;22.40;53.70;;;;;;5075121;28;20178;-69
2020/12/19 03:02:14;;;;;;;5.10;3.53;;;22.40;53.70;;;;;;5093117;28;20427;-70
2020/12/19 03:04:40;;;;;;;3.50;3.20;;;22.40;53.70;;;;;;5093067;28;20280;-70
2020/12/19 03:07:06;;;;;;;3.33;3.03;;;22.40;53.70;;;;;;5075081;28;20174;-70
2020/12/19 03:09:31;;;;;;;3.40;3.10;;;22.40;53.80;;;;;;5093103;28;20169;-70
2020/12/19 03:11:57;;;;;;;3.83;3.53;;;22.40;53.80;;;;;;5093042;28;20697;-70
2020/12/19 03:14:23;;;;;;;3.00;2.70;;;22.30;53.70;;;;;;5093042;28;20690;-70
2020/12/19 03:16:48;;;;;;;3.37;3.07;;;22.40;53.80;;;;;;5093046;28;20166;-69
2020/12/19 03:19:14;;;;;;;3.70;3.10;;;22.30;53.70;;;;;;5092994;28;20169;-70
2020/12/19 03:21:39;;;;;;;3.30;3.00;;;22.30;53.80;;;;;;5092928;28;20208;-70
2020/12/19 03:24:05;;;;;;;3.30;3.00;;;22.30;53.80;;;;;;5092917;28;20248;-70
2020/12/19 03:26:32;;;;;;;3.30;3.00;;;22.30;53.80;;;;;;5092921;28;20272;-70
2020/12/19 03:28:57;;;;;;;3.30;3.00;;;22.30;53.80;;;;;;5092943;28;20663;-70
2020/12/19 03:31:23;;;;;;;4.43;3.20;;;22.30;53.80;;;;;;5092910;28;20399;-70
2020/12/19 03:33:49;;;;;;;3.87;3.50;;;22.30;53.80;;;;;;5074552;28;20209;-70
2020/12/19 03:36:15;;;;;;;3.40;3.10;;;22.20;53.80;;;;;;5093228;28;20456;-70
2020/12/19 03:38:41;;;;;;;3.33;3.03;;;22.30;53.80;;;;;;5092842;28;20166;-70
2020/12/19 03:41:06;;;;;;;4.30;3.77;;;22.20;53.80;;;;;;5093273;28;20174;-70
2020/12/19 03:43:32;;;;;;;3.63;3.00;;;22.20;53.80;;;;;;5096740;28;20239;-70
2020/12/19 03:45:58;;;;;;;3.40;2.90;;;22.20;53.80;;;;;;5096677;28;20664;-70
2020/12/19 03:48:23;;;;;;;3.30;3.00;;;22.20;53.80;;;;;;5096727;28;20644;-70
2020/12/19 03:50:49;;;;;;;3.03;2.73;;;22.20;53.80;;;;;;5096698;28;20698;-69
2020/12/19 03:53:15;;;;;;;4.20;3.50;;;22.20;53.90;;;;;;5096652;28;20185;-71
2020/12/19 03:55:40;;;;;;;2.70;2.50;;;22.20;53.90;;;;;;5096857;28;20170;-70
2020/12/19 03:58:06;;;;;;;4.03;3.57;;;22.20;53.90;;;;;;5096589;28;20166;-71
2020/12/19 04:00:32;;;;;;;3.03;2.73;;;22.20;54.40;;;;;;5096485;28;20166;-70
2020/12/19 04:02:57;;;;;;;3.50;3.10;;;22.10;53.80;;;;;;5096588;28;20204;-70
2020/12/19 04:05:23;;;;;;;3.30;3.00;;;22.20;53.90;;;;;;5096284;28;20675;-70
2020/12/19 04:07:48;;;;;;;2.90;2.60;;;22.10;53.80;;;;;;5096351;28;20178;-70
2020/12/19 04:10:14;;;;;;;3.30;2.90;;;22.20;53.90;;;;;;5096311;28;20182;-70
2020/12/19 04:12:40;;;;;;;3.57;3.27;;;22.10;53.80;;;;;;5096299;28;20197;-70
2020/12/19 04:15:07;;;;;;;3.10;2.80;;;22.20;53.90;;;;;;5096438;28;20173;-70
2020/12/19 04:17:34;;;;;;;3.03;2.73;;;22.20;53.90;;;;;;5096144;28;20549;-70
2020/12/19 04:19:59;;;;;;;3.40;3.10;;;22.20;53.80;;;;;;5096397;28;20395;-70
2020/12/19 04:22:25;;;;;;;3.50;3.20;;;22.20;53.80;;;;;;5095905;28;20431;-70
2020/12/19 04:24:51;;;;;;;3.20;2.90;;;22.20;53.80;;;;;;5095963;28;20194;-69
2020/12/19 04:27:16;;;;;;;3.43;3.13;;;22.20;53.80;;;;;;5077755;28;20185;-70
2020/12/19 04:29:42;;;;;;;3.20;2.90;;;22.20;53.80;;;;;;5095926;28;20813;-69
2020/12/19 04:32:08;;;;;;;3.37;3.00;;;22.20;53.80;;;;;;5095742;28;20232;-69
2020/12/19 04:34:34;;;;;;;3.20;2.87;;;22.20;53.80;;;;;;5096129;28;20178;-70
2020/12/19 04:36:59;;;;;;;3.50;3.20;;;22.20;53.80;;;;;;5095843;28;20541;-70
2020/12/19 04:39:25;;;;;;;3.47;2.67;;;22.20;53.80;;;;;;5095754;28;20515;-70
2020/12/19 04:41:50;;;;;;;3.23;2.93;;;22.20;53.80;;;;;;5095647;28;20176;-69
2020/12/19 04:44:19;;;;;;;3.37;3.10;;;22.20;53.80;;;;;;5095636;28;20174;-70
2020/12/19 04:46:44;;;;;;;3.07;2.77;;;22.20;53.80;;;;;;5095535;28;20197;-69
2020/12/19 04:49:11;;;;;;;2.70;2.50;;;22.20;53.80;;;;;;5095514;28;20407;-69
2020/12/19 04:51:37;;;;;;;4.13;3.37;;;22.20;53.80;;;;;;5095393;28;20169;-69
2020/12/19 04:54:04;;;;;;;2.90;2.70;;;22.20;53.90;;;;;;5095499;28;20775;-70
2020/12/19 04:56:30;;;;;;;3.17;2.67;;;22.10;53.80;;;;;;5095467;28;20399;-70
2020/12/19 04:58:59;;;;;;;3.03;2.70;;;22.20;53.90;;;;;;5077117;28;20668;-69
2020/12/19 05:01:25;;;;;;;3.03;2.70;;;22.20;53.90;;;;;;5095253;28;20407;-69
2020/12/19 05:03:52;;;;;;;3.03;2.73;;;22.10;53.80;;;;;;5095427;28;20427;-69
2020/12/19 05:06:20;;;;;;;3.00;2.70;;;22.10;53.80;;;;;;5095076;28;20460;-70
2020/12/19 05:08:46;;;;;;;3.07;2.77;;;22.10;53.80;;;;;;5095189;28;20491;-70
2020/12/19 05:11:13;;;;;;;2.80;2.60;;;22.10;53.80;;;;;;5095145;28;20431;-68
2020/12/19 05:13:40;;;;;;;3.30;3.00;;;22.10;53.80;;;;;;5094927;28;20190;-69
2020/12/19 05:16:07;;;;;;;3.20;2.60;;;22.10;53.80;;;;;;5094710;28;20408;-70
2020/12/19 05:18:35;;;;;;;2.60;2.40;;;22.10;53.80;;;;;;5095243;28;20793;-70
2020/12/19 05:21:02;;;;;;;3.40;3.10;;;22.20;53.80;;;;;;5095064;28;20400;-69
2020/12/19 05:23:28;;;;;;;3.30;3.00;;;22.10;53.80;;;;;;5094903;28;20436;-69
2020/12/19 05:25:56;;;;;;;3.40;2.60;;;22.10;53.80;;;;;;5094858;28;20875;-69
2020/12/19 05:28:21;;;;;;;2.80;2.47;;;22.10;53.80;;;;;;5094826;28;20529;-69
2020/12/19 05:30:48;;;;;;;3.20;2.80;;;22.20;53.80;;;;;;5094671;28;20400;-69
2020/12/19 05:33:15;;;;;;;3.03;2.50;;;22.10;53.80;;;;;;5094615;28;20204;-69
2020/12/19 05:35:41;;;;;;;3.27;2.90;;;22.20;53.80;;;;;;5094677;28;20432;-70
2020/12/19 05:38:06;;;;;;;3.60;2.50;;;22.10;53.70;;;;;;5094582;28;20416;-70
2020/12/19 05:40:34;;;;;;;2.67;2.47;;;22.10;53.70;;;;;;5094860;28;20520;-70
2020/12/19 05:43:00;;;;;;;6.90;2.30;;;22.20;53.80;;;;;;5094436;28;20197;-70
2020/12/19 05:45:28;;;;;;;3.00;2.60;;;22.20;53.70;;;;;;5094302;28;20452;-70
2020/12/19 05:47:54;;;;;;;2.70;2.50;;;22.20;53.70;;;;;;5094689;28;20381;-70
2020/12/19 05:50:21;;;;;;;3.30;3.00;;;22.20;54.30;;;;;;5076467;28;20997;-70
2020/12/19 05:52:47;;;;;;;3.07;2.83;;;22.20;53.70;;;;;;5094331;28;20512;-70
2020/12/19 05:55:17;;;;;;;2.47;2.27;;;22.20;53.70;;;;;;5094296;28;20412;-70
2020/12/19 05:57:43;;;;;;;3.43;2.80;;;22.20;53.70;;;;;;5094321;28;20938;-70
2020/12/19 06:00:16;;;;;;;2.47;2.20;;;22.20;53.70;;;;;;5093988;28;20420;-70
2020/12/19 06:02:43;;;;;;;3.27;2.90;;;22.20;53.60;;;;;;5094261;28;20415;-70
2020/12/19 06:05:13;;;;;;;3.00;2.40;;;22.20;53.60;;;;;;5093545;28;20451;-71
2020/12/19 06:07:42;;;;;;;2.90;2.60;;;22.20;53.60;;;;;;5076210;28;20410;-70
2020/12/19 06:10:09;;;;;;;2.77;2.53;;;22.20;53.60;;;;;;5075803;28;20419;-70
2020/12/19 06:12:58;;;;;;;3.13;2.83;;;22.30;53.60;;;;;;5093834;28;20420;-70
2020/12/19 06:15:39;;;;;;;3.50;2.60;;;22.30;53.60;;;;;;5093986;28;20405;-70
2020/12/19 06:18:18;;;;;;;2.40;2.20;;;22.30;53.60;;;;;;5093883;28;20510;-70
2020/12/19 06:20:44;;;;;;;2.90;2.30;;;22.30;53.60;;;;;;5093809;28;20445;-70
2020/12/19 06:23:16;;;;;;;2.37;2.10;;;22.30;53.60;;;;;;5093754;28;20432;-69
2020/12/19 06:25:44;;;;;;;2.30;2.03;;;22.30;53.60;;;;;;5093875;28;20201;-69
2020/12/19 06:28:10;;;;;;;7.20;2.47;;;22.30;53.50;;;;;;5093854;28;20404;-69
2020/12/19 06:30:37;;;;;;;2.60;2.40;;;22.30;53.60;;;;;;5093878;28;20408;-70
2020/12/19 06:33:14;;;;;;;2.37;2.00;;;22.30;53.50;;;;;;5093376;28;20447;-69
2020/12/19 06:35:48;;;;;;;2.40;2.20;;;22.30;53.50;;;;;;5093468;28;20427;-70
2020/12/19 06:38:14;;;;;;;2.60;2.40;;;22.30;53.50;;;;;;5093601;28;20808;-69
2020/12/19 06:40:40;;;;;;;3.50;2.27;;;22.30;53.60;;;;;;5093466;28;20475;-69
2020/12/19 06:43:14;;;;;;;2.67;2.30;;;22.30;53.50;;;;;;5093276;28;20476;-70
2020/12/19 06:45:40;;;;;;;3.07;2.20;;;22.30;53.50;;;;;;5093478;28;20436;-69
2020/12/19 06:48:32;;;;;;;2.47;2.20;;;22.30;54.10;;;;;;5093370;28;20388;-70
2020/12/19 06:51:00;;;;;;;2.13;1.93;;;22.30;53.50;;;;;;5093318;28;20423;-69
2020/12/19 06:53:28;;;;;;;2.43;2.23;;;22.30;53.50;;;;;;5093227;28;20469;-70
2020/12/19 06:55:53;;;;;;;2.43;2.23;;;22.30;53.50;;;;;;5093270;28;20400;-69
2020/12/19 06:58:35;;;;;;;3.70;2.30;;;22.30;53.50;;;;;;5093191;28;20392;-69
2020/12/19 07:01:21;;;;;;;2.77;2.37;;;22.30;53.50;;;;;;5093232;28;20173;-69
2020/12/19 07:03:47;;;;;;;2.57;2.33;;;22.30;53.50;;;;;;5092878;28;20942;-70
2020/12/19 07:06:15;;;;;;;2.10;1.90;;;22.30;53.50;;;;;;5074985;28;20447;-69
2020/12/19 07:08:42;;;;;;;2.57;2.37;;;22.30;53.60;;;;;;5092923;28;20173;-69
2020/12/19 07:11:12;;;;;;;2.20;2.00;;;22.30;53.50;;;;;;5093075;28;20894;-69
2020/12/19 07:13:55;;;;;;;2.53;2.20;;;22.30;53.50;;;;;;5093016;28;20438;-69
2020/12/19 07:16:46;;;;;;;2.40;2.20;;;22.40;53.60;;;;;;5094247;28;20874;-69
2020/12/19 07:19:17;;;;;;;2.10;1.90;;;22.30;53.50;;;;;;5097152;28;20411;-69
2020/12/19 07:21:43;;;;;;;2.70;2.40;;;22.30;53.50;;;;;;5097476;28;20486;-69
2020/12/19 07:24:09;;;;;;;2.70;2.17;;;22.30;53.50;;;;;;5097202;28;20415;-69
2020/12/19 07:26:35;;;;;;;2.50;2.30;;;22.40;53.60;;;;;;5097235;28;20451;-68
2020/12/19 07:29:00;;;;;;;2.10;1.90;;;22.30;53.50;;;;;;5097082;28;20222;-69
2020/12/19 07:31:28;;;;;;;2.37;2.07;;;22.40;53.60;;;;;;5078981;28;20177;-69
2020/12/19 07:33:54;;;;;;;2.50;2.30;;;22.30;53.50;;;;;;5096904;28;20189;-69
2020/12/19 07:36:20;;;;;;;3.10;1.70;;;22.40;53.60;;;;;;5096939;28;20384;-69
2020/12/19 07:38:45;;;;;;;2.40;2.20;;;22.40;53.50;;;;;;5096898;28;20170;-69
2020/12/19 07:41:11;;;;;;;2.03;1.83;;;22.40;53.50;;;;;;5096959;28;20205;-69
2020/12/19 07:43:36;;;;;;;2.23;2.07;;;22.40;53.50;;;;;;5097095;28;20239;-70
2020/12/19 07:46:02;;;;;;;2.50;2.30;;;22.40;53.50;;;;;;5096707;28;20193;-69
2020/12/19 07:48:28;;;;;;;2.63;2.43;;;22.40;53.50;;;;;;5096667;28;20635;-69
2020/12/19 07:50:53;;;;;;;2.47;2.27;;;22.40;53.50;;;;;;5096584;28;20173;-70
2020/12/19 07:53:19;;;;;;;2.37;2.17;;;22.40;53.50;;;;;;5096666;28;20185;-69
2020/12/19 07:55:51;;;;;;;2.10;1.80;;;22.40;53.50;;;;;;5096677;28;20611;-69
2020/12/19 07:58:19;;;;;;;2.63;2.23;;;22.40;53.50;;;;;;5096730;28;20261;-69
2020/12/19 08:00:44;;;;;;;2.10;1.90;;;22.40;53.50;;;;;;5096684;28;20937;-69
2020/12/19 08:03:11;;;;;;;2.70;2.33;;;22.40;53.50;;;;;;5096388;28;20427;-70
2020/12/19 08:05:36;;;;;;;2.03;1.83;;;22.30;53.40;;;;;;5096302;28;20302;-70
2020/12/19 08:08:02;;;;;;;2.13;1.97;;;22.40;53.50;;;;;;5096356;28;20507;-70
2020/12/19 08:10:28;;;;;;;2.50;2.30;;;22.40;53.50;;;;;;5096321;28;20664;-69
2020/12/19 08:12:53;;;;;;;2.00;1.77;;;22.30;53.40;;;;;;5096156;28;20185;-69
2020/12/19 08:15:21;;;;;;;2.10;1.77;;;22.30;53.40;;;;;;5096299;28;20353;-69
2020/12/19 08:17:50;;;;;;;4.00;2.07;;;22.40;53.50;;;;;;5096252;28;20180;-69
2020/12/19 08:20:19;;;;;;;2.60;2.40;;;22.40;53.60;;;;;;5096020;28;20416;-69
2020/12/19 08:22:45;;;;;;;2.47;2.13;;;22.30;53.50;;;;;;5094434;28;20431;-70
2020/12/19 08:25:11;;;;;;;2.40;2.13;;;22.40;53.60;;;;;;5095871;28;20534;-70
2020/12/19 08:27:40;;;;;;;2.33;1.80;;;22.40;53.60;;;;;;5095506;28;20454;-70
2020/12/19 08:30:30;;;;;;;2.73;2.43;;;22.30;53.50;;;;;;5077369;28;20193;-68
2020/12/19 08:33:08;;;;;;;2.83;2.10;;;22.30;53.50;;;;;;5095618;28;20564;-69
2020/12/19 08:35:41;;;;;;;2.17;1.97;;;22.30;53.50;;;;;;5096124;28;20392;-69
2020/12/19 08:38:08;;;;;;;4.87;2.10;;;22.30;53.50;;;;;;5096045;28;20776;-69
2020/12/19 08:40:39;;;;;;;2.80;1.90;;;22.30;53.50;;;;;;5095755;28;20821;-69
2020/12/19 08:43:07;;;;;;;2.53;1.93;;;22.30;53.50;;;;;;5095777;28;20424;-69
2020/12/19 08:45:35;;;;;;;3.00;2.53;;;22.30;53.40;;;;;;5095488;28;20508;-69
2020/12/19 08:48:04;;;;;;;2.70;2.50;;;22.30;53.40;;;;;;5095692;28;20435;-68
2020/12/19 08:50:35;;;;;;;2.70;1.80;;;22.30;53.40;;;;;;5095624;28;20471;-69
2020/12/19 08:53:06;;;;;;;2.93;2.67;;;22.30;53.40;;;;;;5095470;28;20424;-69
2020/12/19 08:55:32;;;;;;;2.73;2.17;;;22.30;53.40;;;;;;5095424;28;20414;-69
2020/12/19 08:57:57;;;;;;;2.50;2.30;;;22.30;53.40;;;;;;5095526;28;20424;-69
2020/12/19 09:00:23;;;;;;;2.20;2.00;;;22.30;53.30;;;;;;5095334;28;20158;-70
2020/12/19 09:02:50;;;;;;;4.40;2.37;;;22.30;53.30;;;;;;5095249;28;20600;-69
2020/12/19 09:05:30;;;;;;;3.10;2.27;;;22.40;53.40;;;;;;5095187;28;20447;-69
2020/12/19 09:07:57;;;;;;;2.57;2.37;;;22.40;53.30;;;;;;5095508;28;20480;-69
2020/12/19 09:10:28;;;;;;;3.80;2.40;;;22.30;53.30;;;;;;5095503;28;20391;-69
2020/12/19 09:13:18;;;;;;;3.57;2.37;;;22.30;53.30;;;;;;5077198;28;20845;-69
2020/12/19 09:15:45;;;;;;;2.70;2.50;;;22.40;53.40;;;;;;5095134;28;20407;-69
2020/12/19 09:18:15;;;;;;;4.67;2.67;;;22.30;53.30;;;;;;5095076;28;20410;-69
2020/12/19 09:20:42;;;;;;;2.40;2.20;;;22.30;53.30;;;;;;5095004;28;20403;-70
2020/12/19 09:23:08;;;;;;;2.63;1.93;;;22.30;53.30;;;;;;5094973;28;20481;-69
2020/12/19 09:25:34;;;;;;;2.90;2.50;;;22.30;53.30;;;;;;5095231;28;20459;-69
2020/12/19 09:28:00;;;;;;;3.40;2.90;;;22.40;53.30;;;;;;5094881;28;20158;-69
2020/12/19 09:30:25;;;;;;;4.13;2.90;;;22.30;53.30;;;;;;5094813;28;20169;-70
2020/12/19 09:32:51;;;;;;;3.90;2.60;;;22.30;53.30;;;;;;5094531;28;20582;-74
2020/12/19 09:35:17;;;;;;;2.90;2.60;;;22.40;53.30;;;;;;5094670;28;20531;-69
2020/12/19 09:37:43;;;;;;;3.50;2.53;;;22.40;53.30;;;;;;5094866;28;20400;-68
2020/12/19 09:40:08;;;;;;;3.20;2.83;;;22.30;53.30;;;;;;5092895;28;20584;-68
2020/12/19 09:42:34;;;;;;;5.53;3.10;;;22.40;53.30;;;;;;5092778;28;20598;-69
2020/12/19 09:44:59;;;;;;;6.33;3.10;;;22.40;53.30;;;;;;5093567;28;20190;-69
2020/12/19 09:47:25;;;;;;;6.80;3.17;;;22.30;53.20;;;;;;5093346;28;20595;-68
2020/12/19 09:49:51;;;;;;;3.70;2.90;;;22.40;53.30;;;;;;5092947;28;20227;-69
2020/12/19 09:52:16;;;;;;;5.50;3.00;;;22.40;53.30;;;;;;5093373;28;20193;-69
2020/12/19 09:54:42;;;;;;;4.57;2.73;;;22.40;53.30;;;;;;5094048;28;20682;-69
2020/12/19 09:57:07;;;;;;;4.73;3.47;;;22.30;53.20;;;;;;5094254;28;20173;-69
2020/12/19 09:59:33;;;;;;;5.27;3.20;;;22.30;53.20;;;;;;5094173;28;20584;-69
2020/12/19 10:01:58;;;;;;;5.37;3.10;;;22.40;53.30;;;;;;5093989;28;20220;-68
2020/12/19 10:04:24;;;;;;;4.23;2.80;;;22.30;53.20;;;;;;5094109;28;20169;-68
2020/12/19 10:06:50;;;;;;;3.67;3.03;;;22.30;53.20;;;;;;5093956;28;20194;-69
2020/12/19 10:09:16;;;;;;;3.50;2.90;;;22.40;53.30;;;;;;5094025;28;20565;-69
2020/12/19 10:11:42;;;;;;;4.00;3.20;;;22.40;53.30;;;;;;5093969;28;20404;-69
2020/12/19 10:14:07;;;;;;;8.37;4.30;;;22.40;53.30;;;;;;5094260;28;20181;-69
2020/12/19 10:16:33;;;;;;;11.40;5.03;;;22.30;53.20;;;;;;5093851;28;20173;-69
2020/12/19 10:18:58;;;;;;;8.90;4.50;;;22.40;53.30;;;;;;5093866;28;20178;-69
2020/12/19 10:21:24;;;;;;;11.07;4.57;;;22.30;53.30;;;;;;5093773;28;20603;-69
2020/12/19 10:23:50;;;;;;;9.27;5.47;;;22.40;53.30;;;;;;5093707;28;20194;-69
2020/12/19 10:26:15;;;;;;;10.37;6.00;;;22.40;53.40;;;;;;5093618;28;20603;-69
2020/12/19 10:28:41;;;;;;;10.60;5.53;;;22.40;53.30;;;;;;5093460;28;20243;-69
2020/12/19 10:31:07;;;;;;;13.50;6.70;;;22.40;53.30;;;;;;5093705;28;20404;-69
2020/12/19 10:33:32;;;;;;;18.97;6.10;;;22.40;53.30;;;;;;5093552;28;20245;-69
2020/12/19 10:35:58;;;;;;;11.30;6.03;;;22.40;53.40;;;;;;5093852;28;20192;-69
2020/12/19 10:38:24;;;;;;;8.40;4.77;;;22.40;53.40;;;;;;5093509;28;20170;-69
2020/12/19 10:40:49;;;;;;;12.00;6.80;;;22.40;53.40;;;;;;5093781;28;20632;-69
2020/12/19 10:43:15;;;;;;;11.97;6.60;;;22.40;53.40;;;;;;5093374;28;20245;-69
2020/12/19 10:45:40;;;;;;;12.53;6.43;;;22.40;53.40;;;;;;5093602;28;20204;-69
2020/12/19 10:48:06;;;;;;;9.77;5.87;;;22.40;53.40;;;;;;5093384;28;20170;-69
2020/12/19 10:50:32;;;;;;;9.70;5.80;;;22.40;53.40;;;;;;5093315;28;20307;-68
2020/12/19 10:52:57;;;;;;;13.50;6.87;;;22.40;53.40;;;;;;5093277;28;20660;-69
2020/12/19 10:55:23;;;;;;;14.67;6.93;;;22.40;53.40;;;;;;5093298;28;20201;-69
2020/12/19 10:57:48;;;;;;;14.17;6.63;;;22.40;53.50;;;;;;5093548;28;20547;-69
2020/12/19 11:00:14;;;;;;;13.10;6.10;;;22.40;53.40;;;;;;5093274;28;20256;-69
2020/12/19 11:02:39;;;;;;;12.90;6.00;;;22.30;53.40;;;;;;5093218;28;20571;-68
2020/12/19 11:05:05;;;;;;;12.63;6.50;;;22.40;53.40;;;;;;5093127;28;20197;-68
2020/12/19 11:07:31;;;;;;;11.90;6.50;;;22.40;53.50;;;;;;5093165;28;20589;-69
2020/12/19 11:09:56;;;;;;;10.80;6.20;;;22.40;53.40;;;;;;5075181;28;20710;-68
2020/12/19 11:12:22;;;;;;;10.33;5.93;;;22.40;53.40;;;;;;5093160;28;20193;-68
2020/12/19 11:14:48;;;;;;;12.07;5.70;;;22.40;53.40;;;;;;5093092;28;20174;-69
2020/12/19 11:17:13;;;;;;;10.77;5.60;;;22.40;53.40;;;;;;5093335;28;20173;-69
2020/12/19 11:19:39;;;;;;;10.17;5.60;;;22.40;53.40;;;;;;5093019;28;20256;-69
2020/12/19 11:22:05;;;;;;;13.00;6.30;;;22.40;53.40;;;;;;5093072;28;20193;-69
2020/12/19 11:24:31;;;;;;;11.13;5.00;;;22.40;53.40;;;;;;5092971;28;20552;-68
2020/12/19 11:26:56;;;;;;;9.90;6.10;;;22.40;53.30;;;;;;5093125;28;20197;-68
2020/12/19 11:29:22;;;;;;;9.03;5.17;;;22.40;53.30;;;;;;5074873;28;20981;-69
2020/12/19 11:31:48;;;;;;;9.37;6.43;;;22.40;53.30;;;;;;5092720;28;20261;-69
2020/12/19 11:34:15;;;;;;;14.00;6.30;;;22.40;53.30;;;;;;5093169;28;20204;-69
2020/12/19 11:36:41;;;;;;;10.17;6.10;;;22.40;53.30;;;;;;5092898;28;20411;-68
2020/12/19 11:39:08;;;;;;;11.93;6.00;;;22.40;53.30;;;;;;5092847;28;20491;-69
2020/12/19 11:41:34;;;;;;;10.70;7.10;;;22.40;53.30;;;;;;5092648;28;20256;-68
2020/12/19 11:44:00;;;;;;;10.27;5.60;;;22.40;53.30;;;;;;5092690;28;20463;-69
2020/12/19 11:46:25;;;;;;;10.20;5.03;;;22.40;53.30;;;;;;5093247;28;20867;-69
2020/12/19 11:48:51;;;;;;;9.10;5.03;;;22.40;53.30;;;;;;5092827;28;20637;-68
2020/12/19 11:51:17;;;;;;;9.17;6.03;;;22.40;53.30;;;;;;5092766;28;20173;-69
2020/12/19 11:53:42;;;;;;;10.07;5.63;;;22.40;53.30;;;;;;5074569;28;20564;-69
2020/12/19 11:56:08;;;;;;;8.30;5.40;;;22.40;53.30;;;;;;5074634;28;20186;-68
2020/12/19 11:58:34;;;;;;;9.27;5.60;;;22.40;53.30;;;;;;5092620;28;20174;-69
2020/12/19 12:00:59;;;;;;;8.67;4.73;;;22.40;53.30;;;;;;5092692;28;20611;-68
2020/12/19 12:03:25;;;;;;;10.93;5.47;;;22.40;53.30;;;;;;5094981;28;20197;-68
2020/12/19 12:05:51;;;;;;;8.73;5.00;;;22.40;53.30;;;;;;5096305;28;20198;-69
2020/12/19 12:08:16;;;;;;;8.93;4.73;;;22.40;53.30;;;;;;5096333;28;20178;-69
2020/12/19 12:10:43;;;;;;;7.47;5.57;;;22.40;53.30;;;;;;5096241;28;20253;-70
2020/12/19 12:13:09;;;;;;;10.03;4.83;;;22.40;53.30;;;;;;5096143;28;20717;-69
2020/12/19 12:15:34;;;;;;;10.20;5.83;;;22.40;53.30;;;;;;5096209;28;20494;-69
2020/12/19 12:18:00;;;;;;;6.73;5.53;;;22.40;53.30;;;;;;5096153;28;20257;-69
2020/12/19 12:20:26;;;;;;;9.73;4.90;;;22.40;53.30;;;;;;5096128;28;20197;-69
2020/12/19 12:22:52;;;;;;;11.30;6.17;;;22.40;53.30;;;;;;5096040;28;20197;-69
2020/12/19 12:25:18;;;;;;;8.93;5.50;;;22.40;53.30;;;;;;5095912;28;20462;-69
2020/12/19 12:27:43;;;;;;;8.37;4.90;;;22.40;53.30;;;;;;5096268;28;20412;-69
2020/12/19 12:30:09;;;;;;;15.93;5.80;;;22.50;53.30;;;;;;5096253;28;20546;-69
2020/12/19 12:32:35;;;;;;;10.73;5.90;;;22.40;53.30;;;;;;5095646;28;20209;-69
2020/12/19 12:35:00;;;;;;;8.83;4.73;;;22.40;53.30;;;;;;5095960;28;20223;-69
2020/12/19 12:37:26;;;;;;;10.70;5.13;;;22.40;53.30;;;;;;5095827;28;20219;-69
2020/12/19 12:39:51;;;;;;;7.93;4.60;;;22.40;53.30;;;;;;5095702;28;20209;-69
2020/12/19 12:42:21;;;;;;;7.90;5.87;;;22.40;53.30;;;;;;5095683;28;20201;-69
2020/12/19 12:44:48;;;;;;;8.37;4.90;;;22.40;53.30;;;;;;5095524;28;20169;-69